TimeADT,TemperatureF,Dew PointF,Humidity,Sea Level PressureIn,VisibilityMPH,Wind Direction,Wind SpeedMPH,Gust SpeedMPH,PrecipitationIn,Events,Conditions,WindDirDegrees,DateUTC
12:00 AM,40.3,37.9,91,-9999,-9999.0,North,-9999.0,-,0.04,,Unknown,0,2012-10-13 03:00:00
1:00 AM,40.6,37.8,89,-9999,-9999.0,North,-9999.0,-,0.05,,Unknown,0,2012-10-13 04:00:00
2:00 AM,39.4,37.8,94,-9999,-9999.0,North,-9999.0,-,N/A,,Unknown,0,2012-10-13 05:00:00
3:00 AM,41,35,73,,,Calm,Calm,,,,,,2012-10-13 06:00:00
3:00 AM,40.6,35.4,82,-9999,-9999.0,North,-9999.0,-,0.03,,Unknown,0,2012-10-13 06:00:00
4:00 AM,42.3,33.6,71,-9999,-9999.0,North,-9999.0,-,N/A,,Unknown,0,2012-10-13 07:00:00
6:00 AM,42.3,34.2,73,-9999,-9999.0,North,-9999.0,-,0.03,,Unknown,0,2012-10-13 09:00:00
7:00 AM,39.4,34.9,84,-9999,-9999.0,North,-9999.0,-,N/A,,Unknown,0,2012-10-13 10:00:00
8:00 AM,38.8,34.7,85,-9999,-9999.0,North,-9999.0,-,N/A,,Unknown,0,2012-10-13 11:00:00
9:00 AM,39,34,76,,,Calm,Calm,,,,,,2012-10-13 12:00:00
9:00 AM,39.0,34.2,83,-9999,-9999.0,North,-9999.0,-,N/A,,Unknown,0,2012-10-13 12:00:00
10:00 AM,43.9,30.6,59,-9999,-9999.0,North,-9999.0,-,N/A,,Unknown,0,2012-10-13 13:00:00
11:00 AM,42.6,30.9,63,-9999,-9999.0,North,-9999.0,-,0.03,,Unknown,0,2012-10-13 14:00:00
1:00 PM,42.6,31.8,66,-9999,-9999.0,North,-9999.0,-,N/A,,Unknown,0,2012-10-13 16:00:00
2:00 PM,43.5,27.3,53,-9999,-9999.0,North,-9999.0,-,N/A,,Unknown,0,2012-10-13 17:00:00
3:00 PM,45,27,37,,,Calm,Calm,,,,,,2012-10-13 18:00:00
3:00 PM,44.6,27.1,50,-9999,-9999.0,North,-9999.0,-,N/A,,Unknown,0,2012-10-13 18:00:00
4:00 PM,45.3,25.7,46,-9999,-9999.0,North,-9999.0,-,N/A,,Unknown,0,2012-10-13 19:00:00
5:00 PM,42.6,31.6,65,-9999,-9999.0,North,-9999.0,-,N/A,,Unknown,0,2012-10-13 20:00:00
6:00 PM,43.3,26.1,51,-9999,-9999.0,North,-9999.0,-,N/A,,Unknown,0,2012-10-13 21:00:00
7:00 PM,43.2,28.8,57,-9999,-9999.0,North,-9999.0,-,N/A,,Unknown,0,2012-10-13 22:00:00
8:00 PM,43.2,28.9,57,-9999,-9999.0,North,-9999.0,-,N/A,,Unknown,0,2012-10-13 23:00:00
9:00 PM,43.5,28.6,56,-9999,-9999.0,North,-9999.0,-,N/A,,Unknown,0,2012-10-14 00:00:00
10:00 PM,42.8,27.3,54,-9999,-9999.0,North,-9999.0,-,N/A,,Unknown,0,2012-10-14 01:00:00